sensor_id;sensor_type;location;lat;lon;timestamp;temperature;humidity
46055;DHT22;31788;6.954;-71.872;2023-04-12T00:00:47;28.70;96.30
46055;DHT22;31788;6.954;-71.872;2023-04-12T00:03:17;28.70;96.20
46055;DHT22;31788;6.954;-71.872;2023-04-12T00:05:46;28.70;96.30
46055;DHT22;31788;6.954;-71.872;2023-04-12T00:08:14;28.70;96.20
46055;DHT22;31788;6.954;-71.872;2023-04-12T00:10:41;28.70;96.20
46055;DHT22;31788;6.954;-71.872;2023-04-12T00:13:08;28.70;96.00
46055;DHT22;31788;6.954;-71.872;2023-04-12T00:15:35;28.60;96.10
46055;DHT22;31788;6.954;-71.872;2023-04-12T00:18:01;28.60;95.90
46055;DHT22;31788;6.954;-71.872;2023-04-12T00:20:28;28.60;95.90
46055;DHT22;31788;6.954;-71.872;2023-04-12T00:22:55;28.60;95.80
46055;DHT22;31788;6.954;-71.872;2023-04-12T00:25:22;28.60;95.90
46055;DHT22;31788;6.954;-71.872;2023-04-12T00:27:49;28.60;95.90
46055;DHT22;31788;6.954;-71.872;2023-04-12T00:30:15;28.50;95.50
46055;DHT22;31788;6.954;-71.872;2023-04-12T00:32:43;28.40;96.00
46055;DHT22;31788;6.954;-71.872;2023-04-12T00:35:10;28.40;96.10
46055;DHT22;31788;6.954;-71.872;2023-04-12T00:37:36;28.40;96.40
46055;DHT22;31788;6.954;-71.872;2023-04-12T00:40:03;28.40;96.70
46055;DHT22;31788;6.954;-71.872;2023-04-12T00:42:33;28.40;96.70
46055;DHT22;31788;6.954;-71.872;2023-04-12T00:45:00;28.40;96.80
46055;DHT22;31788;6.954;-71.872;2023-04-12T00:47:28;28.40;96.90
46055;DHT22;31788;6.954;-71.872;2023-04-12T00:49:55;28.40;97.00
46055;DHT22;31788;6.954;-71.872;2023-04-12T00:52:22;28.40;97.00
46055;DHT22;31788;6.954;-71.872;2023-04-12T00:54:49;28.50;97.10
46055;DHT22;31788;6.954;-71.872;2023-04-12T00:57:16;28.50;97.20
46055;DHT22;31788;6.954;-71.872;2023-04-12T00:59:43;28.50;97.30
46055;DHT22;31788;6.954;-71.872;2023-04-12T01:02:10;28.50;97.30
46055;DHT22;31788;6.954;-71.872;2023-04-12T01:04:36;28.50;97.60
46055;DHT22;31788;6.954;-71.872;2023-04-12T01:07:15;28.40;97.70
46055;DHT22;31788;6.954;-71.872;2023-04-12T01:09:58;28.40;97.70
46055;DHT22;31788;6.954;-71.872;2023-04-12T01:15:21;28.40;98.00
46055;DHT22;31788;6.954;-71.872;2023-04-12T01:20:34;28.30;98.00
46055;DHT22;31788;6.954;-71.872;2023-04-12T01:23:33;28.30;98.20
46055;DHT22;31788;6.954;-71.872;2023-04-12T01:26:30;28.30;98.30
46055;DHT22;31788;6.954;-71.872;2023-04-12T01:29:03;28.30;98.40
46055;DHT22;31788;6.954;-71.872;2023-04-12T01:31:33;28.30;98.20
46055;DHT22;31788;6.954;-71.872;2023-04-12T01:34:02;28.30;98.20
46055;DHT22;31788;6.954;-71.872;2023-04-12T01:36:30;28.30;98.30
46055;DHT22;31788;6.954;-71.872;2023-04-12T01:38:57;28.30;98.30
46055;DHT22;31788;6.954;-71.872;2023-04-12T01:41:24;28.30;98.40
46055;DHT22;31788;6.954;-71.872;2023-04-12T01:43:51;28.20;98.10
46055;DHT22;31788;6.954;-71.872;2023-04-12T01:46:20;28.20;98.10
46055;DHT22;31788;6.954;-71.872;2023-04-12T01:48:49;28.20;98.20
46055;DHT22;31788;6.954;-71.872;2023-04-12T01:53:59;28.10;98.50
46055;DHT22;31788;6.954;-71.872;2023-04-12T01:56:30;28.10;98.40
46055;DHT22;31788;6.954;-71.872;2023-04-12T01:59:00;28.00;98.40
46055;DHT22;31788;6.954;-71.872;2023-04-12T02:01:28;28.00;98.50
46055;DHT22;31788;6.954;-71.872;2023-04-12T02:03:58;28.00;98.50
46055;DHT22;31788;6.954;-71.872;2023-04-12T02:06:25;28.00;98.50
46055;DHT22;31788;6.954;-71.872;2023-04-12T02:09:02;28.10;98.50
46055;DHT22;31788;6.954;-71.872;2023-04-12T02:11:30;28.10;98.60
46055;DHT22;31788;6.954;-71.872;2023-04-12T02:13:57;28.10;98.70
46055;DHT22;31788;6.954;-71.872;2023-04-12T02:16:24;28.10;98.60
46055;DHT22;31788;6.954;-71.872;2023-04-12T02:18:54;28.10;98.60
46055;DHT22;31788;6.954;-71.872;2023-04-12T02:21:24;28.00;98.50
46055;DHT22;31788;6.954;-71.872;2023-04-12T02:23:52;28.00;98.70
46055;DHT22;31788;6.954;-71.872;2023-04-12T02:26:19;28.00;98.80
46055;DHT22;31788;6.954;-71.872;2023-04-12T02:28:45;28.00;98.70
46055;DHT22;31788;6.954;-71.872;2023-04-12T02:31:13;28.00;98.90
46055;DHT22;31788;6.954;-71.872;2023-04-12T02:33:40;28.00;99.10
46055;DHT22;31788;6.954;-71.872;2023-04-12T02:36:09;28.00;99.00
46055;DHT22;31788;6.954;-71.872;2023-04-12T02:38:36;28.00;98.90
46055;DHT22;31788;6.954;-71.872;2023-04-12T02:41:02;27.90;98.80
46055;DHT22;31788;6.954;-71.872;2023-04-12T02:43:29;27.90;98.70
46055;DHT22;31788;6.954;-71.872;2023-04-12T02:45:56;27.90;98.80
46055;DHT22;31788;6.954;-71.872;2023-04-12T02:48:22;27.90;99.10
46055;DHT22;31788;6.954;-71.872;2023-04-12T02:50:49;27.90;99.20
46055;DHT22;31788;6.954;-71.872;2023-04-12T02:53:16;27.80;99.40
46055;DHT22;31788;6.954;-71.872;2023-04-12T02:55:42;27.80;99.30
46055;DHT22;31788;6.954;-71.872;2023-04-12T02:58:09;27.90;99.20
46055;DHT22;31788;6.954;-71.872;2023-04-12T03:00:37;27.90;99.20
46055;DHT22;31788;6.954;-71.872;2023-04-12T03:03:04;27.90;99.20
46055;DHT22;31788;6.954;-71.872;2023-04-12T03:05:31;27.80;99.10
46055;DHT22;31788;6.954;-71.872;2023-04-12T03:07:57;27.80;99.20
46055;DHT22;31788;6.954;-71.872;2023-04-12T03:10:24;27.80;99.20
46055;DHT22;31788;6.954;-71.872;2023-04-12T03:12:51;27.80;98.90
46055;DHT22;31788;6.954;-71.872;2023-04-12T03:15:17;27.90;98.90
46055;DHT22;31788;6.954;-71.872;2023-04-12T03:17:44;27.90;98.80
46055;DHT22;31788;6.954;-71.872;2023-04-12T03:20:11;27.90;98.70
46055;DHT22;31788;6.954;-71.872;2023-04-12T03:22:38;27.90;98.70
46055;DHT22;31788;6.954;-71.872;2023-04-12T03:25:05;27.90;98.60
46055;DHT22;31788;6.954;-71.872;2023-04-12T03:27:32;27.90;98.60
46055;DHT22;31788;6.954;-71.872;2023-04-12T03:29:59;27.80;98.40
46055;DHT22;31788;6.954;-71.872;2023-04-12T03:32:25;27.80;98.40
46055;DHT22;31788;6.954;-71.872;2023-04-12T03:34:52;27.80;98.00
46055;DHT22;31788;6.954;-71.872;2023-04-12T03:37:18;27.80;97.90
46055;DHT22;31788;6.954;-71.872;2023-04-12T03:39:45;27.80;97.90
46055;DHT22;31788;6.954;-71.872;2023-04-12T03:42:13;27.80;98.10
46055;DHT22;31788;6.954;-71.872;2023-04-12T03:44:41;27.80;97.90
46055;DHT22;31788;6.954;-71.872;2023-04-12T03:47:07;27.80;97.50
46055;DHT22;31788;6.954;-71.872;2023-04-12T03:49:34;27.80;97.40
46055;DHT22;31788;6.954;-71.872;2023-04-12T03:52:04;27.80;97.20
46055;DHT22;31788;6.954;-71.872;2023-04-12T03:54:32;27.80;97.20
46055;DHT22;31788;6.954;-71.872;2023-04-12T03:56:58;27.80;97.20
46055;DHT22;31788;6.954;-71.872;2023-04-12T03:59:27;27.80;97.20
46055;DHT22;31788;6.954;-71.872;2023-04-12T04:01:55;27.70;97.00
46055;DHT22;31788;6.954;-71.872;2023-04-12T04:04:22;27.70;97.20
46055;DHT22;31788;6.954;-71.872;2023-04-12T04:06:49;27.70;97.50
46055;DHT22;31788;6.954;-71.872;2023-04-12T04:09:16;27.60;97.60
46055;DHT22;31788;6.954;-71.872;2023-04-12T04:11:42;27.70;97.60
46055;DHT22;31788;6.954;-71.872;2023-04-12T04:14:09;27.60;97.60
46055;DHT22;31788;6.954;-71.872;2023-04-12T04:16:36;27.60;97.80
46055;DHT22;31788;6.954;-71.872;2023-04-12T04:19:02;27.70;97.70
46055;DHT22;31788;6.954;-71.872;2023-04-12T04:21:29;27.60;97.80
46055;DHT22;31788;6.954;-71.872;2023-04-12T04:23:58;27.60;97.70
46055;DHT22;31788;6.954;-71.872;2023-04-12T04:26:29;27.60;97.90
46055;DHT22;31788;6.954;-71.872;2023-04-12T04:29:03;27.60;97.70
46055;DHT22;31788;6.954;-71.872;2023-04-12T04:31:30;27.60;98.10
46055;DHT22;31788;6.954;-71.872;2023-04-12T04:34:02;27.60;98.20
46055;DHT22;31788;6.954;-71.872;2023-04-12T04:36:34;27.60;98.30
46055;DHT22;31788;6.954;-71.872;2023-04-12T04:39:01;27.60;98.40
46055;DHT22;31788;6.954;-71.872;2023-04-12T04:41:30;27.60;98.60
46055;DHT22;31788;6.954;-71.872;2023-04-12T04:43:59;27.50;98.70
46055;DHT22;31788;6.954;-71.872;2023-04-12T04:46:26;27.50;98.60
46055;DHT22;31788;6.954;-71.872;2023-04-12T04:48:55;27.50;98.80
46055;DHT22;31788;6.954;-71.872;2023-04-12T04:51:23;27.40;98.60
46055;DHT22;31788;6.954;-71.872;2023-04-12T04:53:50;27.40;98.70
46055;DHT22;31788;6.954;-71.872;2023-04-12T04:56:17;27.40;98.80
46055;DHT22;31788;6.954;-71.872;2023-04-12T04:58:43;27.30;98.70
46055;DHT22;31788;6.954;-71.872;2023-04-12T05:01:10;27.30;98.70
46055;DHT22;31788;6.954;-71.872;2023-04-12T05:03:38;27.30;98.80
46055;DHT22;31788;6.954;-71.872;2023-04-12T05:06:06;27.30;99.00
46055;DHT22;31788;6.954;-71.872;2023-04-12T05:08:32;27.30;99.20
46055;DHT22;31788;6.954;-71.872;2023-04-12T05:10:59;27.30;99.20
46055;DHT22;31788;6.954;-71.872;2023-04-12T05:13:25;27.30;99.10
46055;DHT22;31788;6.954;-71.872;2023-04-12T05:15:52;27.20;98.90
46055;DHT22;31788;6.954;-71.872;2023-04-12T05:18:19;27.20;98.90
46055;DHT22;31788;6.954;-71.872;2023-04-12T05:20:45;27.20;99.20
46055;DHT22;31788;6.954;-71.872;2023-04-12T05:23:15;27.20;99.10
46055;DHT22;31788;6.954;-71.872;2023-04-12T05:25:46;27.20;99.30
46055;DHT22;31788;6.954;-71.872;2023-04-12T05:28:15;27.20;99.30
46055;DHT22;31788;6.954;-71.872;2023-04-12T05:30:43;27.20;99.10
46055;DHT22;31788;6.954;-71.872;2023-04-12T05:33:10;27.20;99.10
46055;DHT22;31788;6.954;-71.872;2023-04-12T05:35:37;27.20;99.10
46055;DHT22;31788;6.954;-71.872;2023-04-12T05:38:03;27.20;99.20
46055;DHT22;31788;6.954;-71.872;2023-04-12T05:40:30;27.20;99.10
46055;DHT22;31788;6.954;-71.872;2023-04-12T05:42:57;27.20;99.10
46055;DHT22;31788;6.954;-71.872;2023-04-12T05:45:23;27.30;99.20
46055;DHT22;31788;6.954;-71.872;2023-04-12T05:47:50;27.20;99.40
46055;DHT22;31788;6.954;-71.872;2023-04-12T05:50:17;27.20;99.30
46055;DHT22;31788;6.954;-71.872;2023-04-12T05:52:45;27.20;99.30
46055;DHT22;31788;6.954;-71.872;2023-04-12T05:55:14;27.20;99.30
46055;DHT22;31788;6.954;-71.872;2023-04-12T05:57:44;27.20;99.40
46055;DHT22;31788;6.954;-71.872;2023-04-12T06:00:12;27.20;99.50
46055;DHT22;31788;6.954;-71.872;2023-04-12T06:02:43;27.10;99.70
46055;DHT22;31788;6.954;-71.872;2023-04-12T06:05:10;27.20;99.70
46055;DHT22;31788;6.954;-71.872;2023-04-12T06:07:39;27.20;99.70
46055;DHT22;31788;6.954;-71.872;2023-04-12T06:10:14;27.20;99.60
46055;DHT22;31788;6.954;-71.872;2023-04-12T06:12:44;27.20;99.80
46055;DHT22;31788;6.954;-71.872;2023-04-12T06:15:10;27.20;99.70
46055;DHT22;31788;6.954;-71.872;2023-04-12T06:17:37;27.20;99.60
46055;DHT22;31788;6.954;-71.872;2023-04-12T06:20:04;27.20;99.70
46055;DHT22;31788;6.954;-71.872;2023-04-12T06:22:34;27.20;99.70
46055;DHT22;31788;6.954;-71.872;2023-04-12T06:25:01;27.20;99.90
46055;DHT22;31788;6.954;-71.872;2023-04-12T06:27:29;27.20;99.90
46055;DHT22;31788;6.954;-71.872;2023-04-12T06:29:55;27.10;99.90
46055;DHT22;31788;6.954;-71.872;2023-04-12T06:32:22;27.10;99.90
46055;DHT22;31788;6.954;-71.872;2023-04-12T06:34:49;27.00;99.90
46055;DHT22;31788;6.954;-71.872;2023-04-12T06:37:15;27.10;99.90
46055;DHT22;31788;6.954;-71.872;2023-04-12T06:39:42;27.10;99.90
46055;DHT22;31788;6.954;-71.872;2023-04-12T06:42:08;27.10;99.90
46055;DHT22;31788;6.954;-71.872;2023-04-12T06:44:35;27.10;99.90
46055;DHT22;31788;6.954;-71.872;2023-04-12T06:47:01;27.10;99.90
46055;DHT22;31788;6.954;-71.872;2023-04-12T06:49:28;27.20;99.90
46055;DHT22;31788;6.954;-71.872;2023-04-12T06:51:55;27.20;99.90
46055;DHT22;31788;6.954;-71.872;2023-04-12T06:54:21;27.10;99.90
46055;DHT22;31788;6.954;-71.872;2023-04-12T06:56:49;27.10;99.90
46055;DHT22;31788;6.954;-71.872;2023-04-12T06:59:15;27.10;99.90
46055;DHT22;31788;6.954;-71.872;2023-04-12T07:01:42;27.10;99.90
46055;DHT22;31788;6.954;-71.872;2023-04-12T07:04:09;27.10;99.90
46055;DHT22;31788;6.954;-71.872;2023-04-12T07:06:36;27.10;99.90
46055;DHT22;31788;6.954;-71.872;2023-04-12T07:09:03;27.10;99.90
46055;DHT22;31788;6.954;-71.872;2023-04-12T07:11:30;27.00;99.90
46055;DHT22;31788;6.954;-71.872;2023-04-12T07:13:56;27.10;99.90
46055;DHT22;31788;6.954;-71.872;2023-04-12T07:16:28;27.00;99.90
46055;DHT22;31788;6.954;-71.872;2023-04-12T07:18:56;27.10;99.90
46055;DHT22;31788;6.954;-71.872;2023-04-12T07:21:22;27.10;99.90
46055;DHT22;31788;6.954;-71.872;2023-04-12T07:23:50;27.10;99.90
46055;DHT22;31788;6.954;-71.872;2023-04-12T07:26:18;27.00;99.90
46055;DHT22;31788;6.954;-71.872;2023-04-12T07:28:44;27.00;99.90
46055;DHT22;31788;6.954;-71.872;2023-04-12T07:31:11;27.00;99.90
46055;DHT22;31788;6.954;-71.872;2023-04-12T07:33:38;26.90;99.90
46055;DHT22;31788;6.954;-71.872;2023-04-12T07:36:05;26.90;99.90
46055;DHT22;31788;6.954;-71.872;2023-04-12T07:38:32;27.00;99.90
46055;DHT22;31788;6.954;-71.872;2023-04-12T07:40:59;27.00;99.90
46055;DHT22;31788;6.954;-71.872;2023-04-12T07:43:25;27.00;99.90
46055;DHT22;31788;6.954;-71.872;2023-04-12T07:45:54;27.00;99.80
46055;DHT22;31788;6.954;-71.872;2023-04-12T07:48:21;27.00;99.90
46055;DHT22;31788;6.954;-71.872;2023-04-12T07:50:47;27.00;99.90
46055;DHT22;31788;6.954;-71.872;2023-04-12T07:53:23;27.00;99.80
46055;DHT22;31788;6.954;-71.872;2023-04-12T07:55:49;27.00;99.90
46055;DHT22;31788;6.954;-71.872;2023-04-12T07:58:17;27.00;99.70
46055;DHT22;31788;6.954;-71.872;2023-04-12T08:00:44;27.00;99.40
46055;DHT22;31788;6.954;-71.872;2023-04-12T08:03:13;27.00;99.30
46055;DHT22;31788;6.954;-71.872;2023-04-12T08:05:40;27.00;99.40
46055;DHT22;31788;6.954;-71.872;2023-04-12T08:08:07;27.00;99.50
46055;DHT22;31788;6.954;-71.872;2023-04-12T08:10:38;27.00;99.70
46055;DHT22;31788;6.954;-71.872;2023-04-12T08:13:05;27.00;99.80
46055;DHT22;31788;6.954;-71.872;2023-04-12T08:15:32;26.90;99.70
46055;DHT22;31788;6.954;-71.872;2023-04-12T08:17:59;26.90;99.50
46055;DHT22;31788;6.954;-71.872;2023-04-12T08:20:25;26.90;99.60
46055;DHT22;31788;6.954;-71.872;2023-04-12T08:22:52;26.90;99.70
46055;DHT22;31788;6.954;-71.872;2023-04-12T08:25:20;26.90;99.90
46055;DHT22;31788;6.954;-71.872;2023-04-12T08:27:49;26.90;99.90
46055;DHT22;31788;6.954;-71.872;2023-04-12T08:30:17;27.00;99.90
46055;DHT22;31788;6.954;-71.872;2023-04-12T08:32:43;27.00;99.90
46055;DHT22;31788;6.954;-71.872;2023-04-12T08:35:10;27.00;99.90
46055;DHT22;31788;6.954;-71.872;2023-04-12T08:37:37;26.90;99.80
46055;DHT22;31788;6.954;-71.872;2023-04-12T08:40:05;26.90;99.80
46055;DHT22;31788;6.954;-71.872;2023-04-12T08:42:34;27.00;99.70
46055;DHT22;31788;6.954;-71.872;2023-04-12T08:45:11;27.00;99.70
46055;DHT22;31788;6.954;-71.872;2023-04-12T08:47:42;27.00;99.50
46055;DHT22;31788;6.954;-71.872;2023-04-12T08:50:10;27.00;99.50
46055;DHT22;31788;6.954;-71.872;2023-04-12T08:52:39;26.90;99.70
46055;DHT22;31788;6.954;-71.872;2023-04-12T08:55:07;26.90;99.80
46055;DHT22;31788;6.954;-71.872;2023-04-12T08:57:35;26.80;99.70
46055;DHT22;31788;6.954;-71.872;2023-04-12T09:00:09;26.80;99.80
46055;DHT22;31788;6.954;-71.872;2023-04-12T09:02:37;26.80;99.90
46055;DHT22;31788;6.954;-71.872;2023-04-12T09:05:04;26.90;99.90
46055;DHT22;31788;6.954;-71.872;2023-04-12T09:07:32;26.80;99.90
46055;DHT22;31788;6.954;-71.872;2023-04-12T09:09:58;26.80;99.90
46055;DHT22;31788;6.954;-71.872;2023-04-12T09:12:25;26.80;99.70
46055;DHT22;31788;6.954;-71.872;2023-04-12T09:15:11;26.80;99.80
46055;DHT22;31788;6.954;-71.872;2023-04-12T09:17:40;26.80;99.60
46055;DHT22;31788;6.954;-71.872;2023-04-12T09:22:43;26.80;99.90
46055;DHT22;31788;6.954;-71.872;2023-04-12T09:25:14;26.80;99.90
46055;DHT22;31788;6.954;-71.872;2023-04-12T09:27:46;26.80;99.90
46055;DHT22;31788;6.954;-71.872;2023-04-12T09:30:14;26.80;99.90
46055;DHT22;31788;6.954;-71.872;2023-04-12T09:32:41;26.70;99.90
46055;DHT22;31788;6.954;-71.872;2023-04-12T09:35:08;26.70;99.90
46055;DHT22;31788;6.954;-71.872;2023-04-12T09:37:34;26.70;99.90
46055;DHT22;31788;6.954;-71.872;2023-04-12T09:40:06;26.70;99.90
46055;DHT22;31788;6.954;-71.872;2023-04-12T09:42:33;26.80;99.90
46055;DHT22;31788;6.954;-71.872;2023-04-12T09:47:46;26.70;99.90
46055;DHT22;31788;6.954;-71.872;2023-04-12T09:50:21;26.70;99.90
46055;DHT22;31788;6.954;-71.872;2023-04-12T09:52:57;26.70;99.90
46055;DHT22;31788;6.954;-71.872;2023-04-12T09:55:25;26.70;99.90
46055;DHT22;31788;6.954;-71.872;2023-04-12T09:57:54;26.80;99.90
46055;DHT22;31788;6.954;-71.872;2023-04-12T10:00:24;26.70;99.90
46055;DHT22;31788;6.954;-71.872;2023-04-12T10:02:53;26.70;99.90
46055;DHT22;31788;6.954;-71.872;2023-04-12T10:05:21;26.70;99.90
46055;DHT22;31788;6.954;-71.872;2023-04-12T10:07:50;26.60;99.90
46055;DHT22;31788;6.954;-71.872;2023-04-12T10:10:19;26.60;99.90
46055;DHT22;31788;6.954;-71.872;2023-04-12T10:12:47;26.60;99.90
46055;DHT22;31788;6.954;-71.872;2023-04-12T10:15:15;26.60;99.90
46055;DHT22;31788;6.954;-71.872;2023-04-12T10:17:47;26.60;99.90
46055;DHT22;31788;6.954;-71.872;2023-04-12T10:20:15;26.60;99.90
46055;DHT22;31788;6.954;-71.872;2023-04-12T10:22:47;26.60;99.90
46055;DHT22;31788;6.954;-71.872;2023-04-12T10:25:18;26.60;99.90
46055;DHT22;31788;6.954;-71.872;2023-04-12T10:27:46;26.60;99.90
46055;DHT22;31788;6.954;-71.872;2023-04-12T10:35:29;26.60;99.90
46055;DHT22;31788;6.954;-71.872;2023-04-12T10:38:01;26.60;99.90
46055;DHT22;31788;6.954;-71.872;2023-04-12T10:40:32;26.60;99.90
46055;DHT22;31788;6.954;-71.872;2023-04-12T10:43:24;26.60;99.90
46055;DHT22;31788;6.954;-71.872;2023-04-12T10:45:51;26.70;99.90
46055;DHT22;31788;6.954;-71.872;2023-04-12T10:48:37;26.60;99.90
46055;DHT22;31788;6.954;-71.872;2023-04-12T10:51:23;26.60;99.90
46055;DHT22;31788;6.954;-71.872;2023-04-12T10:56:45;26.50;99.90
46055;DHT22;31788;6.954;-71.872;2023-04-12T10:59:13;26.50;99.90
46055;DHT22;31788;6.954;-71.872;2023-04-12T11:01:40;26.50;99.90
46055;DHT22;31788;6.954;-71.872;2023-04-12T11:04:16;26.50;99.90
46055;DHT22;31788;6.954;-71.872;2023-04-12T11:07:06;26.50;99.90
46055;DHT22;31788;6.954;-71.872;2023-04-12T11:09:40;26.50;99.90
46055;DHT22;31788;6.954;-71.872;2023-04-12T11:14:46;26.60;99.90
46055;DHT22;31788;6.954;-71.872;2023-04-12T11:19:56;26.60;99.90
46055;DHT22;31788;6.954;-71.872;2023-04-12T11:22:26;26.60;99.90
46055;DHT22;31788;6.954;-71.872;2023-04-12T11:24:55;26.60;99.90
46055;DHT22;31788;6.954;-71.872;2023-04-12T11:27:23;26.60;99.90
46055;DHT22;31788;6.954;-71.872;2023-04-12T11:29:51;26.60;99.90
46055;DHT22;31788;6.954;-71.872;2023-04-12T11:32:27;26.70;99.90
46055;DHT22;31788;6.954;-71.872;2023-04-12T11:34:55;26.70;99.90
46055;DHT22;31788;6.954;-71.872;2023-04-12T11:37:23;26.80;99.90
46055;DHT22;31788;6.954;-71.872;2023-04-12T11:39:54;26.80;99.90
46055;DHT22;31788;6.954;-71.872;2023-04-12T11:42:25;26.80;99.90
46055;DHT22;31788;6.954;-71.872;2023-04-12T11:44:53;26.80;99.90
46055;DHT22;31788;6.954;-71.872;2023-04-12T11:47:21;26.80;99.90
46055;DHT22;31788;6.954;-71.872;2023-04-12T11:49:51;26.80;99.90
46055;DHT22;31788;6.954;-71.872;2023-04-12T11:52:19;26.80;99.90
46055;DHT22;31788;6.954;-71.872;2023-04-12T11:54:47;26.80;99.90
46055;DHT22;31788;6.954;-71.872;2023-04-12T11:57:16;26.80;99.90
46055;DHT22;31788;6.954;-71.872;2023-04-12T11:59:45;26.80;99.90
46055;DHT22;31788;6.954;-71.872;2023-04-12T12:02:13;26.90;99.90
46055;DHT22;31788;6.954;-71.872;2023-04-12T12:04:43;26.90;99.90
46055;DHT22;31788;6.954;-71.872;2023-04-12T12:07:12;27.00;99.90
46055;DHT22;31788;6.954;-71.872;2023-04-12T12:09:39;27.00;99.90
46055;DHT22;31788;6.954;-71.872;2023-04-12T12:12:08;27.00;99.80
46055;DHT22;31788;6.954;-71.872;2023-04-12T12:14:35;27.00;99.80
46055;DHT22;31788;6.954;-71.872;2023-04-12T12:17:11;27.10;99.60
46055;DHT22;31788;6.954;-71.872;2023-04-12T12:19:41;27.10;99.40
46055;DHT22;31788;6.954;-71.872;2023-04-12T12:22:12;27.10;99.10
46055;DHT22;31788;6.954;-71.872;2023-04-12T12:25:04;27.20;99.30
46055;DHT22;31788;6.954;-71.872;2023-04-12T12:27:38;27.20;99.20
46055;DHT22;31788;6.954;-71.872;2023-04-12T12:30:07;27.30;98.90
46055;DHT22;31788;6.954;-71.872;2023-04-12T12:32:36;27.30;99.00
46055;DHT22;31788;6.954;-71.872;2023-04-12T12:35:09;27.30;98.70
46055;DHT22;31788;6.954;-71.872;2023-04-12T12:37:36;27.40;98.70
46055;DHT22;31788;6.954;-71.872;2023-04-12T12:40:10;27.40;98.40
46055;DHT22;31788;6.954;-71.872;2023-04-12T12:45:12;27.50;98.40
46055;DHT22;31788;6.954;-71.872;2023-04-12T12:48:05;27.50;98.50
46055;DHT22;31788;6.954;-71.872;2023-04-12T12:50:33;27.50;98.50
46055;DHT22;31788;6.954;-71.872;2023-04-12T12:53:00;27.50;98.30
46055;DHT22;31788;6.954;-71.872;2023-04-12T12:55:28;27.60;98.40
46055;DHT22;31788;6.954;-71.872;2023-04-12T12:57:56;27.60;98.20
46055;DHT22;31788;6.954;-71.872;2023-04-12T13:00:27;27.60;98.30
46055;DHT22;31788;6.954;-71.872;2023-04-12T13:02:54;27.60;98.30
46055;DHT22;31788;6.954;-71.872;2023-04-12T13:05:20;27.60;98.30
46055;DHT22;31788;6.954;-71.872;2023-04-12T13:07:48;27.70;98.40
46055;DHT22;31788;6.954;-71.872;2023-04-12T13:10:14;27.70;98.20
46055;DHT22;31788;6.954;-71.872;2023-04-12T13:12:41;27.80;97.90
46055;DHT22;31788;6.954;-71.872;2023-04-12T13:15:08;27.90;97.90
46055;DHT22;31788;6.954;-71.872;2023-04-12T13:17:36;27.90;97.80
46055;DHT22;31788;6.954;-71.872;2023-04-12T13:20:03;28.00;97.80
46055;DHT22;31788;6.954;-71.872;2023-04-12T13:22:30;28.00;97.70
46055;DHT22;31788;6.954;-71.872;2023-04-12T13:24:58;28.10;97.70
46055;DHT22;31788;6.954;-71.872;2023-04-12T13:27:25;28.10;97.50
46055;DHT22;31788;6.954;-71.872;2023-04-12T13:29:52;28.10;97.40
46055;DHT22;31788;6.954;-71.872;2023-04-12T13:32:19;28.10;97.50
46055;DHT22;31788;6.954;-71.872;2023-04-12T13:34:45;28.10;97.50
46055;DHT22;31788;6.954;-71.872;2023-04-12T13:37:13;28.10;97.40
46055;DHT22;31788;6.954;-71.872;2023-04-12T13:39:40;28.10;97.30
46055;DHT22;31788;6.954;-71.872;2023-04-12T13:42:07;28.10;97.40
46055;DHT22;31788;6.954;-71.872;2023-04-12T13:44:34;28.10;97.60
46055;DHT22;31788;6.954;-71.872;2023-04-12T13:47:02;28.10;97.60
46055;DHT22;31788;6.954;-71.872;2023-04-12T13:49:29;28.10;97.70
46055;DHT22;31788;6.954;-71.872;2023-04-12T13:51:55;28.10;97.80
46055;DHT22;31788;6.954;-71.872;2023-04-12T13:54:22;28.10;97.80
46055;DHT22;31788;6.954;-71.872;2023-04-12T13:56:49;28.00;97.80
46055;DHT22;31788;6.954;-71.872;2023-04-12T13:59:15;28.10;97.90
46055;DHT22;31788;6.954;-71.872;2023-04-12T14:01:42;28.10;97.80
46055;DHT22;31788;6.954;-71.872;2023-04-12T14:04:09;28.10;97.90
46055;DHT22;31788;6.954;-71.872;2023-04-12T14:06:35;28.10;97.90
46055;DHT22;31788;6.954;-71.872;2023-04-12T14:09:03;28.10;97.90
46055;DHT22;31788;6.954;-71.872;2023-04-12T14:11:46;28.10;97.80
46055;DHT22;31788;6.954;-71.872;2023-04-12T14:14:13;28.20;98.10
46055;DHT22;31788;6.954;-71.872;2023-04-12T14:16:39;28.20;98.00
46055;DHT22;31788;6.954;-71.872;2023-04-12T14:19:06;28.20;98.00
46055;DHT22;31788;6.954;-71.872;2023-04-12T14:21:33;28.20;97.90
46055;DHT22;31788;6.954;-71.872;2023-04-12T14:23:59;28.20;98.00
46055;DHT22;31788;6.954;-71.872;2023-04-12T14:26:26;28.20;97.90
46055;DHT22;31788;6.954;-71.872;2023-04-12T14:28:53;28.20;98.00
46055;DHT22;31788;6.954;-71.872;2023-04-12T14:31:19;28.20;97.70
46055;DHT22;31788;6.954;-71.872;2023-04-12T14:33:46;28.20;97.80
46055;DHT22;31788;6.954;-71.872;2023-04-12T14:36:13;28.30;97.80
46055;DHT22;31788;6.954;-71.872;2023-04-12T14:38:39;28.30;97.90
46055;DHT22;31788;6.954;-71.872;2023-04-12T14:41:07;28.30;97.90
46055;DHT22;31788;6.954;-71.872;2023-04-12T14:43:34;28.30;97.80
46055;DHT22;31788;6.954;-71.872;2023-04-12T14:46:01;28.30;97.90
46055;DHT22;31788;6.954;-71.872;2023-04-12T14:48:27;28.30;97.60
46055;DHT22;31788;6.954;-71.872;2023-04-12T14:50:55;28.30;97.30
46055;DHT22;31788;6.954;-71.872;2023-04-12T14:53:22;28.40;97.50
46055;DHT22;31788;6.954;-71.872;2023-04-12T14:55:49;28.40;97.20
46055;DHT22;31788;6.954;-71.872;2023-04-12T14:58:16;28.40;97.40
46055;DHT22;31788;6.954;-71.872;2023-04-12T15:00:43;28.40;97.40
46055;DHT22;31788;6.954;-71.872;2023-04-12T15:03:09;28.40;97.50
46055;DHT22;31788;6.954;-71.872;2023-04-12T15:05:36;28.40;97.40
46055;DHT22;31788;6.954;-71.872;2023-04-12T15:08:03;28.40;97.40
46055;DHT22;31788;6.954;-71.872;2023-04-12T15:10:29;28.40;97.30
46055;DHT22;31788;6.954;-71.872;2023-04-12T15:12:57;28.50;97.10
46055;DHT22;31788;6.954;-71.872;2023-04-12T15:15:24;28.50;97.20
46055;DHT22;31788;6.954;-71.872;2023-04-12T15:17:50;28.50;97.10
46055;DHT22;31788;6.954;-71.872;2023-04-12T15:20:18;28.50;97.20
46055;DHT22;31788;6.954;-71.872;2023-04-12T15:22:45;28.60;96.90
46055;DHT22;31788;6.954;-71.872;2023-04-12T15:25:11;28.60;97.00
46055;DHT22;31788;6.954;-71.872;2023-04-12T15:27:38;28.60;97.00
46055;DHT22;31788;6.954;-71.872;2023-04-12T15:30:06;28.60;96.90
46055;DHT22;31788;6.954;-71.872;2023-04-12T15:32:35;28.60;96.90
46055;DHT22;31788;6.954;-71.872;2023-04-12T15:35:07;28.70;96.70
46055;DHT22;31788;6.954;-71.872;2023-04-12T15:37:34;28.60;96.80
46055;DHT22;31788;6.954;-71.872;2023-04-12T15:40:01;28.70;96.80
46055;DHT22;31788;6.954;-71.872;2023-04-12T15:42:42;28.70;96.40
46055;DHT22;31788;6.954;-71.872;2023-04-12T15:45:09;28.80;96.50
46055;DHT22;31788;6.954;-71.872;2023-04-12T15:47:36;28.80;96.50
46055;DHT22;31788;6.954;-71.872;2023-04-12T15:50:03;28.80;96.10
46055;DHT22;31788;6.954;-71.872;2023-04-12T15:52:30;28.80;96.20